Harbor Beach, Michigan
Current Conditions -  °F | °C
As of 6:59 PM on Friday 31 Oct 2014 (Local Time) from KBAX Reporting Station
Light Snow Light Snow  
Wind Chill: 24°   Ceiling: 1300
Heat Index: 35°   Visibility: 7mi
Dew Point: 33°   Wind: 18mph
Humidity: 94%   Direction: 20°NNE
Pressure: 30.09"   Gusts: 26mph
Location:  43.84°N, 82.65°W
Report Text: KBAX 312259Z AUTO 02016G23KT 7SM -SN BKN013 OVC019 02/01 A3009 RMK AO2 T00160008
Loading
Personal Weather Stations






























Interactive Weather Map
Tropical Storm Tracking
New forecast layout! Learn more

10-Day Weather Forecast

Advertisements
Track Severe Weather on mobile